createdAt,value
2022-09-20T00:01:38.036Z,10.30
2022-09-20T00:04:06.830Z,10.30
2022-09-20T00:06:34.777Z,10.30
2022-09-20T00:09:04.845Z,10.20
2022-09-20T00:11:36.965Z,10.20
2022-09-20T00:14:09.035Z,10.20
2022-09-20T00:16:43.412Z,10.10
2022-09-20T00:19:23.347Z,10.10
2022-09-20T00:21:50.184Z,10.10
2022-09-20T00:24:17.240Z,10.10
2022-09-20T00:26:44.106Z,10.20
2022-09-20T00:29:13.796Z,10.10
2022-09-20T00:31:43.273Z,10.10
2022-09-20T00:34:34.107Z,10.10
2022-09-20T00:37:00.912Z,10.10
2022-09-20T00:39:27.894Z,10.10
2022-09-20T00:41:54.812Z,10.10
2022-09-20T00:44:58.603Z,10.00
2022-09-20T00:47:31.179Z,10.00
2022-09-20T00:50:07.586Z,10.00
2022-09-20T00:52:36.791Z,10.00
2022-09-20T00:55:07.898Z,9.90
2022-09-20T00:57:36.385Z,9.90
2022-09-20T01:00:09.184Z,9.90
2022-09-20T01:02:48.557Z,9.90
2022-09-20T01:05:19.042Z,9.90
2022-09-20T01:07:51.061Z,9.90
2022-09-20T01:10:20.479Z,9.90
2022-09-20T01:12:49.502Z,9.90
2022-09-20T01:15:16.843Z,9.90
2022-09-20T01:17:50.928Z,9.90
2022-09-20T01:20:35.844Z,9.80
2022-09-20T01:23:35.938Z,9.90
2022-09-20T01:26:21.619Z,9.90
2022-09-20T01:28:56.913Z,9.90
2022-09-20T01:31:33.343Z,9.90
2022-09-20T01:34:04.761Z,9.90
2022-09-20T01:36:45.689Z,9.80
2022-09-20T01:39:51.928Z,9.80
2022-09-20T01:42:21.325Z,9.80
2022-09-20T01:45:01.569Z,9.80
2022-09-20T01:47:58.797Z,9.70
2022-09-20T01:51:02.419Z,9.70
2022-09-20T01:54:03.463Z,9.60
2022-09-20T01:57:00.388Z,9.60
2022-09-20T02:00:21.685Z,9.50
2022-09-20T02:03:22.200Z,9.50
2022-09-20T02:06:12.846Z,9.50
2022-09-20T02:09:20.546Z,9.60
2022-09-20T02:12:35.649Z,9.60
2022-09-20T02:15:29.617Z,9.60
2022-09-20T02:18:32.590Z,9.60
2022-09-20T02:21:25.754Z,9.60
2022-09-20T02:24:11.113Z,9.60
2022-09-20T02:27:11.293Z,9.60
2022-09-20T02:30:18.806Z,9.60
2022-09-20T02:33:18.060Z,9.50
2022-09-20T02:36:14.925Z,9.50
2022-09-20T02:38:56.642Z,9.50
2022-09-20T02:41:56.345Z,9.50
2022-09-20T02:44:45.875Z,9.50
2022-09-20T02:47:36.223Z,9.50
2022-09-20T02:50:53.791Z,9.40
2022-09-20T02:54:07.669Z,9.40
2022-09-20T02:56:55.564Z,9.40
2022-09-20T02:59:37.372Z,9.30
2022-09-20T03:02:08.775Z,9.30
2022-09-20T03:05:19.580Z,9.30
2022-09-20T03:08:16.946Z,9.30
2022-09-20T03:11:01.560Z,9.30
2022-09-20T03:13:49.483Z,9.30
2022-09-20T03:16:59.155Z,9.30
2022-09-20T03:20:08.606Z,9.20
2022-09-20T03:22:59.469Z,9.20
2022-09-20T03:25:39.058Z,9.20
2022-09-20T03:28:15.110Z,9.20
2022-09-20T03:31:12.303Z,9.10
2022-09-20T03:33:57.630Z,9.10
2022-09-20T03:37:14.122Z,9.10
2022-09-20T03:40:15.847Z,9.10
2022-09-20T03:42:55.529Z,9.00
2022-09-20T03:45:40.984Z,9.00
2022-09-20T03:48:41.438Z,9.00
2022-09-20T03:51:34.345Z,9.00
2022-09-20T03:54:46.147Z,9.10
2022-09-20T03:57:32.138Z,9.10
2022-09-20T04:00:23.591Z,9.10
2022-09-20T04:03:59.552Z,9.10
2022-09-20T04:07:16.452Z,9.00
2022-09-20T04:10:18.912Z,9.00
2022-09-20T04:13:18.914Z,9.00
2022-09-20T04:16:03.714Z,9.00
2022-09-20T04:19:04.306Z,9.00
2022-09-20T04:21:57.681Z,9.00
2022-09-20T04:24:46.070Z,9.00
2022-09-20T04:27:20.655Z,9.10
2022-09-20T04:30:05.673Z,9.10
2022-09-20T04:32:36.716Z,9.10
2022-09-20T04:35:48.176Z,9.10
2022-09-20T04:38:20.877Z,9.10
2022-09-20T04:44:45.989Z,9.10
2022-09-20T04:48:08.902Z,9.10
2022-09-20T04:54:28.217Z,9.10
2022-09-20T04:58:01.677Z,9.10
2022-09-20T05:01:17.887Z,9.10
2022-09-20T05:04:49.640Z,9.10
2022-09-20T05:08:00.881Z,9.00
2022-09-20T05:11:04.677Z,9.00
2022-09-20T05:14:13.732Z,9.00
2022-09-20T05:17:07.805Z,9.00
2022-09-20T05:20:03.062Z,9.00
2022-09-20T05:22:51.790Z,9.00
2022-09-20T05:25:33.804Z,9.00
2022-09-20T05:28:15.493Z,9.00
2022-09-20T05:30:54.100Z,9.10
2022-09-20T05:33:51.357Z,9.00
2022-09-20T05:36:42.420Z,9.00
2022-09-20T05:39:53.217Z,9.00
2022-09-20T05:42:42.359Z,9.00
2022-09-20T05:45:52.287Z,9.00
2022-09-20T05:48:37.685Z,9.00
2022-09-20T05:51:33.948Z,9.00
2022-09-20T05:54:15.773Z,8.90
2022-09-20T05:57:10.322Z,8.80
2022-09-20T06:00:13.430Z,8.80
2022-09-20T06:03:08.589Z,8.80
2022-09-20T06:06:07.172Z,8.80
2022-09-20T06:08:57.926Z,8.90
2022-09-20T06:11:48.889Z,8.90
2022-09-20T06:14:30.701Z,8.90
2022-09-20T06:17:19.366Z,8.90
2022-09-20T06:20:13.823Z,8.90
2022-09-20T06:22:54.561Z,8.90
2022-09-20T06:25:32.053Z,9.00
2022-09-20T06:28:11.665Z,9.00
2022-09-20T06:30:45.741Z,9.10
2022-09-20T06:33:28.356Z,9.20
2022-09-20T06:36:20.616Z,9.20
2022-09-20T06:39:34.070Z,9.30
2022-09-20T06:42:01.574Z,9.30
2022-09-20T06:44:28.419Z,9.30
2022-09-20T06:47:00.186Z,9.40
2022-09-20T06:49:29.031Z,9.40
2022-09-20T06:52:03.036Z,9.40
2022-09-20T06:54:32.381Z,9.40
2022-09-20T06:57:04.155Z,9.40
2022-09-20T06:59:31.966Z,9.50
2022-09-20T07:02:01.409Z,9.50
2022-09-20T07:04:28.350Z,9.50
2022-09-20T07:07:09.248Z,9.50
2022-09-20T07:09:36.515Z,9.60
2022-09-20T07:12:03.613Z,9.70
2022-09-20T07:14:32.952Z,9.80
2022-09-20T07:16:59.742Z,9.90
2022-09-20T07:19:26.570Z,10.00
2022-09-20T07:21:57.897Z,10.10
2022-09-20T07:24:24.762Z,10.20
2022-09-20T07:27:01.343Z,10.30
2022-09-20T07:29:28.800Z,10.40
2022-09-20T07:31:59.020Z,10.50
2022-09-20T07:34:27.175Z,10.60
2022-09-20T07:36:54.082Z,10.80
2022-09-20T07:39:20.955Z,11.00
2022-09-20T07:41:51.144Z,11.20
2022-09-20T07:44:24.899Z,11.50
2022-09-20T07:46:57.968Z,11.80
2022-09-20T07:49:30.115Z,12.00
2022-09-20T07:51:57.791Z,12.20
2022-09-20T07:54:27.163Z,12.40
2022-09-20T07:56:59.864Z,12.70
2022-09-20T07:59:31.699Z,13.10
2022-09-20T08:02:03.359Z,13.60
2022-09-20T08:04:32.403Z,14.10
2022-09-20T08:07:01.432Z,14.60
2022-09-20T08:09:28.319Z,15.20
2022-09-20T08:11:56.460Z,15.80
2022-09-20T08:14:24.461Z,16.50
2022-09-20T08:16:52.195Z,17.10
2022-09-20T08:19:24.440Z,17.60
2022-09-20T08:21:56.355Z,18.10
2022-09-20T08:24:26.157Z,18.60
2022-09-20T08:26:58.601Z,19.20
2022-09-20T08:29:28.057Z,19.70
2022-09-20T08:31:58.370Z,20.20
2022-09-20T08:34:30.858Z,20.60
2022-09-20T08:36:57.780Z,21.00
2022-09-20T08:42:18.450Z,21.90
2022-09-20T08:44:58.800Z,22.20
2022-09-20T08:47:31.577Z,22.50
2022-09-20T08:50:11.516Z,22.80
2022-09-20T08:52:40.757Z,23.00
2022-09-20T08:55:24.534Z,23.10
2022-09-20T08:57:58.073Z,23.30
2022-09-20T09:00:33.402Z,23.40
2022-09-20T09:03:07.197Z,23.50
2022-09-20T09:05:41.248Z,23.70
2022-09-20T09:08:16.902Z,23.80
2022-09-20T09:10:54.577Z,23.90
2022-09-20T09:13:32.944Z,24.00
2022-09-20T09:16:09.939Z,24.20
2022-09-20T09:18:43.312Z,24.40
2022-09-20T09:21:19.063Z,24.50
2022-09-20T09:23:53.174Z,24.60
2022-09-20T09:26:25.846Z,24.70
2022-09-20T09:29:17.510Z,24.80
2022-09-20T09:31:50.400Z,24.90
2022-09-20T09:34:31.686Z,25.00
2022-09-20T09:36:58.800Z,25.00
2022-09-20T09:39:35.579Z,25.10
2022-09-20T09:42:26.202Z,24.80
2022-09-20T09:45:13.194Z,24.40
2022-09-20T09:47:40.041Z,24.10
2022-09-20T09:50:12.404Z,23.80
2022-09-20T09:53:08.951Z,23.30
2022-09-20T09:56:14.058Z,22.80
2022-09-20T09:59:31.157Z,22.50
2022-09-20T10:02:35.432Z,22.20
2022-09-20T10:05:29.792Z,21.90
2022-09-20T10:08:14.290Z,21.60
2022-09-20T10:11:26.596Z,21.30
2022-09-20T10:14:21.232Z,21.00
2022-09-20T10:17:35.910Z,20.70
2022-09-20T10:20:50.142Z,20.40
2022-09-20T10:24:02.655Z,20.30
2022-09-20T10:27:01.797Z,20.10
2022-09-20T10:29:58.150Z,20.00
2022-09-20T10:32:41.917Z,19.80
2022-09-20T10:35:49.850Z,19.80
2022-09-20T10:38:25.239Z,19.70
2022-09-20T10:42:05.075Z,19.80
2022-09-20T10:44:46.513Z,20.00
2022-09-20T10:47:20.298Z,20.20
2022-09-20T10:50:01.143Z,20.50
2022-09-20T10:52:50.708Z,20.70
2022-09-20T10:55:49.990Z,20.90
2022-09-20T10:58:52.341Z,21.10
2022-09-20T11:01:34.609Z,21.10
2022-09-20T11:04:43.630Z,21.00
2022-09-20T11:07:19.511Z,20.90
2022-09-20T11:10:05.184Z,20.80
2022-09-20T11:12:50.286Z,20.80
2022-09-20T11:15:30.921Z,20.80
2022-09-20T11:18:47.563Z,20.80
2022-09-20T11:21:23.256Z,20.80
2022-09-20T11:23:55.338Z,20.80
2022-09-20T11:26:28.392Z,20.70
2022-09-20T11:29:10.743Z,20.70
2022-09-20T11:31:44.909Z,20.60
2022-09-20T11:34:48.145Z,20.50
2022-09-20T11:37:17.325Z,20.50
2022-09-20T11:40:01.232Z,20.40
2022-09-20T11:42:37.835Z,20.50
2022-09-20T11:45:07.409Z,20.50
2022-09-20T11:47:55.012Z,20.50
2022-09-20T11:50:59.178Z,20.50
2022-09-20T11:53:59.838Z,20.50
2022-09-20T11:56:30.934Z,20.50
2022-09-20T11:59:03.987Z,20.40
2022-09-20T12:01:38.012Z,20.40
2022-09-20T12:04:38.615Z,20.40
2022-09-20T12:07:17.945Z,20.40
2022-09-20T12:10:16.439Z,20.30
2022-09-20T12:12:51.603Z,20.30
2022-09-20T12:15:44.953Z,20.20
2022-09-20T12:18:34.261Z,20.20
2022-09-20T12:21:02.323Z,20.20
2022-09-20T12:23:43.273Z,20.10
2022-09-20T12:26:20.474Z,20.00
2022-09-20T12:29:24.997Z,19.90
2022-09-20T12:31:58.199Z,19.70
2022-09-20T12:34:25.333Z,19.60
2022-09-20T12:36:55.206Z,19.50
2022-09-20T12:39:38.449Z,19.50
2022-09-20T12:42:21.409Z,19.50
2022-09-20T12:44:51.245Z,19.60
2022-09-20T12:47:47.886Z,19.60
2022-09-20T12:50:37.313Z,19.60
2022-09-20T12:53:12.434Z,19.50
2022-09-20T12:55:42.471Z,19.50
2022-09-20T12:58:14.410Z,19.50
2022-09-20T13:01:14.401Z,19.40
2022-09-20T13:03:46.960Z,19.30
2022-09-20T13:06:19.624Z,19.30
2022-09-20T13:09:01.097Z,19.30
2022-09-20T13:11:53.484Z,19.20
2022-09-20T13:14:31.302Z,19.20
2022-09-20T13:17:14.259Z,19.30
2022-09-20T13:19:49.912Z,19.50
2022-09-20T13:22:41.993Z,19.60
2022-09-20T13:25:20.484Z,19.70
2022-09-20T13:27:52.536Z,19.80
2022-09-20T13:30:32.590Z,19.80
2022-09-20T13:33:24.299Z,19.70
2022-09-20T13:35:54.562Z,19.60
2022-09-20T13:38:25.039Z,19.50
2022-09-20T13:41:07.210Z,19.50
2022-09-20T13:43:46.675Z,19.40
2022-09-20T13:46:17.761Z,19.40
2022-09-20T13:49:10.462Z,19.30
2022-09-20T13:51:39.902Z,19.30
2022-09-20T13:54:29.779Z,19.20
2022-09-20T13:57:03.263Z,19.10
2022-09-20T13:59:42.062Z,19.10
2022-09-20T14:02:34.507Z,19.10
2022-09-20T14:05:07.302Z,19.00
2022-09-20T14:07:36.439Z,19.10
2022-09-20T14:10:29.335Z,19.00
2022-09-20T14:13:07.487Z,19.00
2022-09-20T14:15:39.465Z,19.00
2022-09-20T14:18:11.879Z,19.00
2022-09-20T14:20:44.334Z,19.00
2022-09-20T14:23:28.909Z,19.00
2022-09-20T14:26:16.853Z,18.90
2022-09-20T14:28:44.587Z,19.00
2022-09-20T14:31:33.566Z,18.90
2022-09-20T14:34:06.374Z,18.90
2022-09-20T14:36:33.320Z,18.90
2022-09-20T14:39:05.481Z,18.90
2022-09-20T14:41:39.757Z,18.80
2022-09-20T14:44:34.657Z,18.70
2022-09-20T14:47:17.211Z,18.70
2022-09-20T14:49:47.586Z,18.60
2022-09-20T14:52:26.829Z,18.60
2022-09-20T14:55:19.091Z,18.50
2022-09-20T14:57:47.016Z,18.50
2022-09-20T15:00:20.700Z,18.40
2022-09-20T15:02:52.937Z,18.40
2022-09-20T15:05:27.188Z,18.30
2022-09-20T15:07:56.138Z,18.30
2022-09-20T15:10:25.855Z,18.30
2022-09-20T15:12:55.225Z,18.20
2022-09-20T15:15:22.078Z,18.20
2022-09-20T15:17:51.676Z,18.10
2022-09-20T15:20:24.862Z,18.10
2022-09-20T15:22:51.876Z,18.10
2022-09-20T15:25:21.518Z,18.00
2022-09-20T15:27:51.753Z,18.00
2022-09-20T15:30:23.113Z,18.00
2022-09-20T15:32:52.512Z,18.00
2022-09-20T15:35:19.496Z,18.00
2022-09-20T15:37:46.481Z,17.90
2022-09-20T15:40:15.795Z,17.90
2022-09-20T15:42:45.923Z,17.90
2022-09-20T15:45:13.302Z,17.90
2022-09-20T15:47:56.981Z,17.80
2022-09-20T15:50:24.639Z,17.90
2022-09-20T15:52:52.049Z,17.90
2022-09-20T15:55:20.628Z,17.90
2022-09-20T15:57:50.881Z,17.80
2022-09-20T16:00:20.194Z,17.80
2022-09-20T16:02:50.414Z,17.80
2022-09-20T16:05:17.493Z,17.70
2022-09-20T16:07:47.372Z,17.70
2022-09-20T16:10:16.767Z,17.60
2022-09-20T16:12:46.322Z,17.60
2022-09-20T16:15:18.777Z,17.50
2022-09-20T16:18:03.996Z,17.40
2022-09-20T16:20:30.854Z,17.30
2022-09-20T16:22:57.692Z,17.30
2022-09-20T16:25:26.727Z,17.20
2022-09-20T16:27:56.087Z,17.20
2022-09-20T16:30:25.428Z,17.10
2022-09-20T16:32:52.973Z,17.10
2022-09-20T16:35:22.012Z,17.10
2022-09-20T16:37:48.861Z,17.10
2022-09-20T16:40:15.983Z,17.10
2022-09-20T16:42:52.032Z,17.10
2022-09-20T16:45:24.464Z,17.10
2022-09-20T16:47:58.001Z,17.10
2022-09-20T16:50:27.092Z,17.00
2022-09-20T16:52:53.946Z,17.00
2022-09-20T16:55:20.926Z,16.90
2022-09-20T16:57:51.860Z,16.80
2022-09-20T17:00:21.961Z,16.70
2022-09-20T17:02:52.871Z,16.60
2022-09-20T17:05:21.944Z,16.50
2022-09-20T17:07:48.821Z,16.40
2022-09-20T17:10:16.250Z,16.40
2022-09-20T17:12:46.353Z,16.30
2022-09-20T17:15:13.657Z,16.20
2022-09-20T17:17:47.760Z,16.10
2022-09-20T17:20:17.189Z,16.10
2022-09-20T17:22:44.225Z,16.00
2022-09-20T17:25:15.697Z,15.90
2022-09-20T17:27:45.630Z,15.80
2022-09-20T17:30:12.884Z,15.80
2022-09-20T17:32:39.755Z,15.60
2022-09-20T17:35:07.397Z,15.50
2022-09-20T17:37:36.671Z,15.40
2022-09-20T17:40:03.956Z,15.30
2022-09-20T17:42:33.876Z,15.20
2022-09-20T17:45:05.721Z,15.10
2022-09-20T17:47:35.678Z,15.00
2022-09-20T17:50:02.568Z,14.90
2022-09-20T17:52:31.559Z,14.90
2022-09-20T17:54:58.403Z,14.80
2022-09-20T17:57:27.799Z,14.70
2022-09-20T17:59:57.050Z,14.70
2022-09-20T18:02:28.233Z,14.60
2022-09-20T18:04:57.589Z,14.60
2022-09-20T18:07:24.468Z,14.50
2022-09-20T18:09:53.849Z,14.50
2022-09-20T18:12:21.644Z,14.50
2022-09-20T18:14:48.559Z,14.50
2022-09-20T18:17:15.390Z,14.50
2022-09-20T18:19:44.488Z,14.50
2022-09-20T18:22:11.531Z,14.50
2022-09-20T18:24:38.370Z,14.50
2022-09-20T18:27:07.471Z,14.50
2022-09-20T18:29:36.855Z,14.50
2022-09-20T18:32:04.320Z,14.60
2022-09-20T18:34:34.017Z,14.60
2022-09-20T18:37:10.018Z,14.50
2022-09-20T18:39:44.530Z,14.50
2022-09-20T18:42:13.624Z,14.50
2022-09-20T18:44:43.918Z,14.50
2022-09-20T18:47:13.133Z,14.50
2022-09-20T18:49:39.993Z,14.50
2022-09-20T18:52:09.170Z,14.50
2022-09-20T18:54:36.255Z,14.50
2022-09-20T18:57:03.458Z,14.40
2022-09-20T18:59:35.231Z,14.40
2022-09-20T19:03:01.033Z,14.40
2022-09-20T19:05:55.497Z,14.40
2022-09-20T19:08:34.274Z,14.40
2022-09-20T19:11:26.358Z,14.40
2022-09-20T19:14:07.317Z,14.40
2022-09-20T19:16:36.973Z,14.40
2022-09-20T19:20:03.954Z,14.30
2022-09-20T19:23:10.821Z,14.30
2022-09-20T19:25:49.783Z,14.30
2022-09-20T19:28:17.257Z,14.30
2022-09-20T19:30:48.206Z,14.30
2022-09-20T19:33:18.257Z,14.30
2022-09-20T19:35:52.415Z,14.40
2022-09-20T19:38:37.406Z,14.40
2022-09-20T19:41:45.106Z,14.30
2022-09-20T19:44:42.601Z,14.30
2022-09-20T19:47:31.083Z,14.30
2022-09-20T19:50:18.501Z,14.30
2022-09-20T19:52:45.888Z,14.40
2022-09-20T19:55:14.105Z,14.40
2022-09-20T19:57:49.730Z,14.30
2022-09-20T20:00:21.316Z,14.30
2022-09-20T20:02:55.234Z,14.20
2022-09-20T20:05:27.444Z,14.20
2022-09-20T20:08:20.050Z,14.20
2022-09-20T20:11:08.242Z,14.20
2022-09-20T20:14:07.079Z,14.20
2022-09-20T20:16:58.163Z,14.20
2022-09-20T20:20:12.369Z,14.10
2022-09-20T20:23:16.682Z,14.10
2022-09-20T20:26:08.786Z,14.10
2022-09-20T20:28:37.641Z,14.10
2022-09-20T20:31:06.171Z,14.20
2022-09-20T20:33:33.658Z,14.20
2022-09-20T20:36:02.160Z,14.20
2022-09-20T20:38:32.566Z,14.10
2022-09-20T20:41:09.473Z,14.10
2022-09-20T20:43:45.642Z,14.10
2022-09-20T20:46:16.212Z,14.10
2022-09-20T20:48:48.145Z,14.10
2022-09-20T20:51:23.104Z,14.10
2022-09-20T20:53:55.632Z,14.10
2022-09-20T20:56:27.526Z,14.10
2022-09-20T20:58:55.236Z,14.10
2022-09-20T21:01:30.031Z,14.20
2022-09-20T21:03:58.122Z,14.20
2022-09-20T21:06:34.403Z,14.20
2022-09-20T21:09:04.740Z,14.20
2022-09-20T21:11:38.339Z,14.20
2022-09-20T21:14:10.111Z,14.20
2022-09-20T21:16:45.524Z,14.20
2022-09-20T21:19:18.818Z,14.20
2022-09-20T21:21:47.867Z,14.20
2022-09-20T21:24:17.277Z,14.20
2022-09-20T21:26:46.055Z,14.20
2022-09-20T21:29:15.716Z,14.20
2022-09-20T21:31:46.785Z,14.10
2022-09-20T21:34:15.620Z,14.20
2022-09-20T21:36:43.891Z,14.20
2022-09-20T21:39:13.411Z,14.20
2022-09-20T21:41:42.776Z,14.10
2022-09-20T21:44:12.309Z,14.10
2022-09-20T21:46:41.647Z,14.10
2022-09-20T21:49:15.731Z,14.10
2022-09-20T21:51:43.853Z,14.10
2022-09-20T21:54:11.244Z,14.10
2022-09-20T21:56:40.534Z,14.10
2022-09-20T21:59:10.056Z,14.10
2022-09-20T22:01:40.224Z,14.10
2022-09-20T22:04:11.788Z,14.00
2022-09-20T22:06:46.302Z,14.00
2022-09-20T22:09:16.363Z,14.00
2022-09-20T22:11:46.275Z,14.00
2022-09-20T22:14:18.474Z,14.00
2022-09-20T22:16:51.143Z,14.00
2022-09-20T22:19:18.807Z,14.00
2022-09-20T22:21:48.646Z,14.00
2022-09-20T22:24:16.926Z,14.10
2022-09-20T22:26:49.368Z,14.10
2022-09-20T22:29:22.014Z,14.10
2022-09-20T22:31:50.076Z,14.10
2022-09-20T22:34:22.398Z,14.10
2022-09-20T22:36:49.886Z,14.10
2022-09-20T22:39:18.845Z,14.00
2022-09-20T22:41:48.163Z,14.00
2022-09-20T22:44:15.188Z,14.10
2022-09-20T22:46:42.060Z,14.10
2022-09-20T22:49:09.812Z,14.00
2022-09-20T22:51:37.708Z,14.00
2022-09-20T22:54:08.454Z,14.00
2022-09-20T22:56:36.837Z,14.00
2022-09-20T22:59:07.665Z,14.00
2022-09-20T23:01:45.025Z,13.90
2022-09-20T23:04:18.581Z,13.90
2022-09-20T23:06:55.092Z,13.90
2022-09-20T23:09:25.876Z,13.90
2022-09-20T23:11:55.222Z,13.90
2022-09-20T23:14:23.163Z,13.90
2022-09-20T23:16:54.858Z,13.90
2022-09-20T23:19:24.045Z,13.90
2022-09-20T23:21:50.866Z,13.90
2022-09-20T23:24:17.738Z,13.90
2022-09-20T23:26:45.279Z,13.90
2022-09-20T23:29:18.953Z,13.80
2022-09-20T23:31:49.935Z,13.80
2022-09-20T23:34:17.459Z,13.80
2022-09-20T23:36:48.124Z,13.80
2022-09-20T23:39:15.814Z,13.80
2022-09-20T23:41:50.630Z,13.80
2022-09-20T23:44:18.268Z,13.70
2022-09-20T23:46:45.132Z,13.70
2022-09-20T23:49:12.098Z,13.70
2022-09-20T23:51:38.916Z,13.70
2022-09-20T23:54:06.304Z,13.60
2022-09-20T23:56:33.491Z,13.60
2022-09-20T23:59:00.339Z,13.60
